createdAt,value
2023-02-17T00:01:48.135Z,101218.91
2023-02-17T00:04:14.616Z,101226.69
2023-02-17T00:06:41.092Z,101233.75
2023-02-17T00:09:07.685Z,101226.50
2023-02-17T00:11:34.149Z,101224.22
2023-02-17T00:14:00.801Z,101210.75
2023-02-17T00:16:28.333Z,101219.84
2023-02-17T00:19:00.918Z,101207.78
2023-02-17T00:21:31.608Z,101218.47
2023-02-17T00:23:58.615Z,101218.03
2023-02-17T00:26:25.217Z,101209.31
2023-02-17T00:28:51.792Z,101200.22
2023-02-17T00:31:20.681Z,101199.09
2023-02-17T00:33:47.837Z,101200.22
2023-02-17T00:36:17.922Z,101194.09
2023-02-17T00:38:45.008Z,101175.22
2023-02-17T00:41:11.515Z,101187.81
2023-02-17T00:43:38.054Z,101178.31
2023-02-17T00:46:05.324Z,101181.84
2023-02-17T00:48:32.494Z,101176.09
2023-02-17T00:50:59.059Z,101174.50
2023-02-17T00:53:25.557Z,101175.75
2023-02-17T00:55:52.030Z,101171.38
2023-02-17T00:58:18.494Z,101156.72
2023-02-17T01:00:45.089Z,101152.38
2023-02-17T01:03:11.634Z,101150.34
2023-02-17T01:05:43.417Z,101150.97
2023-02-17T01:08:10.328Z,101146.13
2023-02-17T01:10:39.032Z,101152.31
2023-02-17T01:13:06.691Z,101142.16
2023-02-17T01:15:38.750Z,101149.50
2023-02-17T01:18:05.509Z,101143.97
2023-02-17T01:20:35.126Z,101147.78
2023-02-17T01:23:02.001Z,101136.59
2023-02-17T01:25:28.499Z,101135.53
2023-02-17T01:27:55.046Z,101131.78
2023-02-17T01:30:21.904Z,101114.31
2023-02-17T01:32:48.862Z,101110.44
2023-02-17T01:35:15.446Z,101099.00
2023-02-17T01:37:41.887Z,101094.63
2023-02-17T01:40:08.811Z,101098.75
2023-02-17T01:42:35.290Z,101095.66
2023-02-17T01:45:17.256Z,101086.94
2023-02-17T01:47:54.082Z,101083.72
2023-02-17T01:50:23.332Z,101070.06
2023-02-17T01:52:49.975Z,101064.88
2023-02-17T01:55:18.372Z,101066.16
2023-02-17T01:57:45.791Z,101059.16
2023-02-17T02:00:13.678Z,101057.41
2023-02-17T02:02:42.418Z,101062.88
2023-02-17T02:05:09.903Z,101044.41
2023-02-17T02:07:39.293Z,101044.50
2023-02-17T02:10:06.467Z,101039.19
2023-02-17T02:12:35.565Z,101038.34
2023-02-17T02:15:10.634Z,101035.41
2023-02-17T02:18:07.977Z,101037.72
2023-02-17T02:20:43.499Z,101046.44
2023-02-17T02:23:12.968Z,101047.09
2023-02-17T02:26:04.775Z,101032.59
2023-02-17T02:28:52.932Z,101020.94
2023-02-17T02:31:36.898Z,101016.44
2023-02-17T02:34:09.868Z,101025.91
2023-02-17T02:37:00.813Z,101002.00
2023-02-17T02:39:30.457Z,100997.41
2023-02-17T02:42:04.336Z,101006.19
2023-02-17T02:44:30.996Z,101000.72
2023-02-17T02:46:57.509Z,100995.84
2023-02-17T02:49:24.479Z,100993.84
2023-02-17T02:51:55.384Z,100990.75
2023-02-17T02:54:28.422Z,100982.13
2023-02-17T02:56:57.900Z,100970.66
2023-02-17T02:59:44.699Z,100960.13
2023-02-17T03:02:21.072Z,100963.19
2023-02-17T03:05:12.768Z,100969.34
2023-02-17T03:08:09.927Z,100962.28
2023-02-17T03:10:36.868Z,100965.91
2023-02-17T03:13:03.894Z,100959.94
2023-02-17T03:15:33.379Z,100958.25
2023-02-17T03:18:01.000Z,100950.16
2023-02-17T03:20:33.030Z,100953.81
2023-02-17T03:22:59.716Z,100955.25
2023-02-17T03:25:26.223Z,100950.00
2023-02-17T03:27:52.793Z,100955.38
2023-02-17T03:30:19.503Z,100962.56
2023-02-17T03:32:47.145Z,100954.78
2023-02-17T03:35:14.099Z,100962.72
2023-02-17T03:37:40.634Z,100962.72
2023-02-17T03:40:08.267Z,100959.84
2023-02-17T03:42:34.802Z,100953.31
2023-02-17T03:45:01.304Z,100952.50
2023-02-17T03:47:27.801Z,100956.03
2023-02-17T03:49:54.368Z,100951.13
2023-02-17T03:52:20.832Z,100945.72
2023-02-17T03:54:47.333Z,100936.25
2023-02-17T03:57:13.832Z,100939.22
2023-02-17T03:59:40.302Z,100934.53
2023-02-17T04:02:06.878Z,100929.53
2023-02-17T04:04:33.413Z,100926.16
2023-02-17T04:06:59.881Z,100925.81
2023-02-17T04:09:26.491Z,100927.41
2023-02-17T04:11:52.957Z,100927.75
2023-02-17T04:14:19.472Z,100923.19
2023-02-17T04:16:46.085Z,100913.56
2023-02-17T04:19:12.621Z,100916.00
2023-02-17T04:21:39.140Z,100901.59
2023-02-17T04:24:05.924Z,100901.66
2023-02-17T04:26:32.374Z,100909.47
2023-02-17T04:28:58.862Z,100914.19
2023-02-17T04:31:28.066Z,100908.59
2023-02-17T04:33:55.045Z,100900.06
2023-02-17T04:36:21.569Z,100893.09
2023-02-17T04:38:48.234Z,100888.94
2023-02-17T04:41:14.772Z,100882.28
2023-02-17T04:43:41.391Z,100874.22
2023-02-17T04:46:08.315Z,100865.22
2023-02-17T04:48:35.139Z,100854.97
2023-02-17T04:51:01.653Z,100859.44
2023-02-17T04:53:28.134Z,100852.84
2023-02-17T04:55:54.824Z,100846.19
2023-02-17T04:58:21.984Z,100853.31
2023-02-17T05:00:49.817Z,100847.28
2023-02-17T05:03:17.448Z,100845.47
2023-02-17T05:05:44.459Z,100845.03
2023-02-17T05:08:11.080Z,100840.19
2023-02-17T05:10:37.562Z,100833.13
2023-02-17T05:13:04.025Z,100838.44
2023-02-17T05:15:31.043Z,100825.78
2023-02-17T05:17:58.493Z,100826.19
2023-02-17T05:20:25.062Z,100824.56
2023-02-17T05:22:51.514Z,100828.47
2023-02-17T05:25:18.618Z,100824.09
2023-02-17T05:27:45.182Z,100824.75
2023-02-17T05:30:12.145Z,100813.91
2023-02-17T05:32:38.602Z,100807.25
2023-02-17T05:35:05.340Z,100792.78
2023-02-17T05:37:31.774Z,100791.00
2023-02-17T05:39:58.256Z,100785.16
2023-02-17T05:42:28.753Z,100792.66
2023-02-17T05:44:55.972Z,100778.25
2023-02-17T05:47:23.239Z,100776.28
2023-02-17T05:49:49.819Z,100766.91
2023-02-17T05:52:18.213Z,100770.81
2023-02-17T05:54:44.820Z,100768.84
2023-02-17T05:57:11.262Z,100762.03
2023-02-17T05:59:37.718Z,100760.50
2023-02-17T06:02:04.155Z,100756.47
2023-02-17T06:04:30.671Z,100757.59
2023-02-17T06:06:57.154Z,100746.09
2023-02-17T06:09:23.684Z,100745.81
2023-02-17T06:11:50.147Z,100736.63
2023-02-17T06:14:16.617Z,100738.13
2023-02-17T06:16:43.041Z,100729.19
2023-02-17T06:19:09.529Z,100727.50
2023-02-17T06:21:36.118Z,100717.47
2023-02-17T06:24:02.684Z,100718.50
2023-02-17T06:26:29.164Z,100720.00
2023-02-17T06:28:55.616Z,100712.56
2023-02-17T06:31:22.196Z,100711.91
2023-02-17T06:33:48.699Z,100715.56
2023-02-17T06:36:16.264Z,100706.41
2023-02-17T06:38:42.741Z,100697.78
2023-02-17T06:41:09.829Z,100698.66
2023-02-17T06:43:36.357Z,100701.47
2023-02-17T06:46:02.889Z,100697.78
2023-02-17T06:48:29.505Z,100690.91
2023-02-17T06:50:55.972Z,100689.84
2023-02-17T06:53:22.416Z,100682.84
2023-02-17T06:55:48.899Z,100685.66
2023-02-17T06:58:15.344Z,100676.63
2023-02-17T07:00:41.847Z,100671.66
2023-02-17T07:03:08.457Z,100668.22
2023-02-17T07:05:36.604Z,100656.16
2023-02-17T07:08:03.991Z,100644.22
2023-02-17T07:10:31.060Z,100653.66
2023-02-17T07:12:57.552Z,100661.94
2023-02-17T07:15:24.027Z,100658.59
2023-02-17T07:17:50.512Z,100656.94
2023-02-17T07:20:17.203Z,100643.94
2023-02-17T07:22:43.653Z,100648.78
2023-02-17T07:25:10.223Z,100648.44
2023-02-17T07:27:37.227Z,100646.34
2023-02-17T07:30:05.083Z,100654.41
2023-02-17T07:32:31.573Z,100651.69
2023-02-17T07:34:58.071Z,100638.59
2023-02-17T07:37:24.604Z,100629.97
2023-02-17T07:39:52.404Z,100618.00
2023-02-17T07:42:18.946Z,100620.41
2023-02-17T07:44:45.433Z,100607.53
2023-02-17T07:47:11.904Z,100615.63
2023-02-17T07:49:38.436Z,100610.72
2023-02-17T07:52:05.495Z,100597.69
2023-02-17T07:54:32.116Z,100598.38
2023-02-17T07:56:58.604Z,100610.50
2023-02-17T07:59:25.053Z,100593.22
2023-02-17T08:01:51.590Z,100588.03
2023-02-17T08:04:18.194Z,100575.00
2023-02-17T08:06:44.755Z,100568.00
2023-02-17T08:09:29.766Z,100557.53
2023-02-17T08:12:14.963Z,100567.25
2023-02-17T08:14:41.467Z,100565.50
2023-02-17T08:17:08.034Z,100560.28
2023-02-17T08:19:47.419Z,100564.72
2023-02-17T08:22:14.393Z,100546.25
2023-02-17T08:24:40.916Z,100544.66
2023-02-17T08:27:07.426Z,100543.69
2023-02-17T08:29:33.907Z,100533.22
2023-02-17T08:32:00.464Z,100529.91
2023-02-17T08:34:28.188Z,100529.09
2023-02-17T08:36:54.638Z,100521.34
2023-02-17T08:39:21.110Z,100520.94
2023-02-17T08:41:48.321Z,100528.88
2023-02-17T08:44:17.411Z,100516.63
2023-02-17T08:46:45.534Z,100509.66
2023-02-17T08:49:13.737Z,100519.41
2023-02-17T08:51:40.780Z,100506.44
2023-02-17T08:54:08.387Z,100507.38
2023-02-17T08:56:36.690Z,100501.31
2023-02-17T08:59:03.656Z,100497.34
2023-02-17T09:01:30.695Z,100492.47
2023-02-17T09:04:00.105Z,100497.56
2023-02-17T09:06:53.397Z,100516.91
2023-02-17T09:09:28.392Z,100502.94
2023-02-17T09:11:56.633Z,100519.38
2023-02-17T09:14:25.423Z,100518.66
2023-02-17T09:16:52.575Z,100521.00
2023-02-17T09:19:19.369Z,100513.31
2023-02-17T09:21:45.922Z,100513.22
2023-02-17T09:24:12.439Z,100511.72
2023-02-17T09:26:39.119Z,100519.50
2023-02-17T09:29:06.204Z,100514.00
2023-02-17T09:31:34.591Z,100499.38
2023-02-17T09:34:01.751Z,100503.06
2023-02-17T09:36:31.849Z,100493.53
2023-02-17T09:38:58.919Z,100487.31
2023-02-17T09:41:45.296Z,100480.56
2023-02-17T09:44:39.636Z,100468.34
2023-02-17T09:47:34.636Z,100476.78
2023-02-17T09:50:07.953Z,100481.25
2023-02-17T09:52:53.522Z,100468.97
2023-02-17T09:55:33.854Z,100464.03
2023-02-17T09:58:04.098Z,100452.72
2023-02-17T10:00:34.097Z,100463.75
2023-02-17T10:03:15.308Z,100442.19
2023-02-17T10:05:55.698Z,100441.06
2023-02-17T10:08:25.186Z,100452.69
2023-02-17T10:11:04.946Z,100441.19
2023-02-17T10:13:34.472Z,100449.91
2023-02-17T10:16:10.466Z,100445.72
2023-02-17T10:18:45.646Z,100447.63
2023-02-17T10:21:27.245Z,100436.88
2023-02-17T10:23:53.740Z,100468.16
2023-02-17T10:26:39.392Z,100444.00
2023-02-17T10:29:13.732Z,100448.94
2023-02-17T10:31:45.920Z,100455.13
2023-02-17T10:34:24.801Z,100444.00
2023-02-17T10:36:52.206Z,100444.81
2023-02-17T10:39:50.581Z,100431.03
2023-02-17T10:42:34.259Z,100428.34
2023-02-17T10:45:04.545Z,100436.72
2023-02-17T10:47:31.240Z,100418.47
2023-02-17T10:49:58.301Z,100431.66
2023-02-17T10:52:32.800Z,100444.09
2023-02-17T10:55:23.048Z,100448.16
2023-02-17T10:57:54.707Z,100444.84
2023-02-17T11:00:21.589Z,100442.19
2023-02-17T11:02:51.539Z,100443.00
2023-02-17T11:05:28.544Z,100428.50
2023-02-17T11:08:23.782Z,100429.16
2023-02-17T11:11:00.397Z,100434.41
2023-02-17T11:13:39.328Z,100424.78
2023-02-17T11:16:06.613Z,100419.75
2023-02-17T11:18:35.934Z,100439.66
2023-02-17T11:21:08.295Z,100416.38
2023-02-17T11:23:35.783Z,100390.28
2023-02-17T11:26:20.790Z,100417.28
2023-02-17T11:28:47.282Z,100411.16
2023-02-17T11:31:31.331Z,100405.69
2023-02-17T11:33:57.989Z,100393.53
2023-02-17T11:36:28.132Z,100410.78
2023-02-17T11:38:54.867Z,100408.31
2023-02-17T11:41:21.464Z,100403.19
2023-02-17T11:43:56.296Z,100403.91
2023-02-17T11:46:28.462Z,100405.81
2023-02-17T11:49:07.777Z,100394.53
2023-02-17T11:51:43.859Z,100391.84
2023-02-17T11:54:55.659Z,100391.13
2023-02-17T11:57:31.001Z,100389.16
2023-02-17T12:00:17.735Z,100373.56
2023-02-17T12:03:06.442Z,100387.41
2023-02-17T12:05:51.744Z,100390.91
2023-02-17T12:08:38.352Z,100396.06
2023-02-17T12:11:09.969Z,100341.22
2023-02-17T12:13:53.801Z,100383.81
2023-02-17T12:16:34.356Z,100375.38
2023-02-17T12:19:28.891Z,100384.69
2023-02-17T12:22:02.689Z,100385.91
2023-02-17T12:24:38.180Z,100392.66
2023-02-17T12:27:16.644Z,100371.03
2023-02-17T12:30:15.027Z,100388.38
2023-02-17T12:32:50.574Z,100377.84
2023-02-17T12:35:26.000Z,100400.34
2023-02-17T12:38:01.320Z,100386.34
2023-02-17T12:40:50.919Z,100388.13
2023-02-17T12:43:39.960Z,100366.50
2023-02-17T12:46:12.807Z,100384.81
2023-02-17T12:49:03.180Z,100382.25
2023-02-17T12:51:53.591Z,100387.41
2023-02-17T12:54:32.954Z,100382.97
2023-02-17T12:57:08.674Z,100382.25
2023-02-17T12:59:40.131Z,100385.75
2023-02-17T13:02:22.246Z,100402.09
2023-02-17T13:04:54.292Z,100384.94
2023-02-17T13:07:38.482Z,100400.44
2023-02-17T13:10:05.985Z,100399.66
2023-02-17T13:12:36.850Z,100409.03
2023-02-17T13:15:07.077Z,100423.13
2023-02-17T13:17:38.085Z,100410.56
2023-02-17T13:20:10.517Z,100415.19
2023-02-17T13:22:38.581Z,100406.56
2023-02-17T13:25:05.579Z,100401.34
2023-02-17T13:27:33.702Z,100400.16
2023-02-17T13:30:10.132Z,100403.75
2023-02-17T13:32:38.490Z,100412.66
2023-02-17T13:35:18.191Z,100405.75
2023-02-17T13:37:46.483Z,100439.56
2023-02-17T13:40:16.021Z,100431.88
2023-02-17T13:43:06.784Z,100429.94
2023-02-17T13:45:39.848Z,100430.81
2023-02-17T13:48:21.498Z,100438.88
2023-02-17T13:50:56.826Z,100422.97
2023-02-17T13:53:32.404Z,100442.81
2023-02-17T13:56:04.351Z,100417.81
2023-02-17T13:58:35.966Z,100421.03
2023-02-17T14:01:04.453Z,100429.00
2023-02-17T14:03:35.909Z,100422.06
2023-02-17T14:06:03.550Z,100414.84
2023-02-17T14:08:35.262Z,100426.34
2023-02-17T14:11:11.899Z,100432.53
2023-02-17T14:13:40.487Z,100448.25
2023-02-17T14:16:07.670Z,100439.38
2023-02-17T14:18:42.799Z,100429.72
2023-02-17T14:21:13.029Z,100439.38
2023-02-17T14:23:45.662Z,100413.25
2023-02-17T14:26:33.972Z,100435.03
2023-02-17T14:29:03.116Z,100441.22
2023-02-17T14:31:29.868Z,100434.50
2023-02-17T14:33:59.731Z,100428.56
2023-02-17T14:36:38.003Z,100428.31
2023-02-17T14:39:12.178Z,100450.34
2023-02-17T14:41:38.647Z,100445.25
2023-02-17T14:44:06.120Z,100425.19
2023-02-17T14:46:33.533Z,100450.03
2023-02-17T14:49:00.178Z,100463.38
2023-02-17T14:51:32.992Z,100436.78
2023-02-17T14:54:02.473Z,100440.50
2023-02-17T14:56:35.140Z,100457.50
2023-02-17T14:59:01.571Z,100461.59
2023-02-17T15:01:28.701Z,100473.50
2023-02-17T15:03:55.493Z,100479.41
2023-02-17T15:06:30.212Z,100480.28
2023-02-17T15:08:58.610Z,100495.03
2023-02-17T15:11:32.371Z,100497.16
2023-02-17T15:13:58.800Z,100492.75
2023-02-17T15:16:25.299Z,100496.78
2023-02-17T15:18:52.001Z,100509.19
2023-02-17T15:21:29.092Z,100528.56
2023-02-17T15:23:56.614Z,100518.94
2023-02-17T15:26:23.285Z,100541.66
2023-02-17T15:28:50.109Z,100547.69
2023-02-17T15:31:17.411Z,100545.28
2023-02-17T15:33:45.209Z,100543.19
2023-02-17T15:36:16.954Z,100531.03
2023-02-17T15:38:43.624Z,100543.03
2023-02-17T15:41:14.864Z,100563.44
2023-02-17T15:43:41.294Z,100563.78
2023-02-17T15:46:13.823Z,100568.47
2023-02-17T15:48:40.898Z,100575.31
2023-02-17T15:51:10.890Z,100574.13
2023-02-17T15:53:37.363Z,100577.72
2023-02-17T15:56:04.716Z,100572.84
2023-02-17T15:58:31.680Z,100593.00
2023-02-17T16:01:02.164Z,100579.25
2023-02-17T16:03:28.716Z,100590.78
2023-02-17T16:05:55.268Z,100593.31
2023-02-17T16:08:21.797Z,100610.16
2023-02-17T16:10:50.220Z,100603.94
2023-02-17T16:13:18.926Z,100614.63
2023-02-17T16:15:46.519Z,100605.38
2023-02-17T16:18:21.746Z,100621.78
2023-02-17T16:20:48.700Z,100637.56
2023-02-17T16:23:15.256Z,100637.41
2023-02-17T16:25:44.508Z,100644.41
2023-02-17T16:28:16.626Z,100655.34
2023-02-17T16:30:43.646Z,100646.22
2023-02-17T16:33:11.134Z,100654.81
2023-02-17T16:35:37.754Z,100659.06
2023-02-17T16:38:16.540Z,100659.09
2023-02-17T16:40:48.903Z,100678.72
2023-02-17T16:43:22.731Z,100675.59
2023-02-17T16:45:55.750Z,100692.44
2023-02-17T16:48:28.360Z,100663.00
2023-02-17T16:50:55.515Z,100673.13
2023-02-17T16:53:22.154Z,100654.22
2023-02-17T16:55:49.314Z,100666.16
2023-02-17T16:58:22.932Z,100675.94
2023-02-17T17:00:54.718Z,100673.44
2023-02-17T17:03:42.299Z,100671.59
2023-02-17T17:06:29.976Z,100692.47
2023-02-17T17:08:59.246Z,100691.34
2023-02-17T17:11:29.907Z,100698.78
2023-02-17T17:13:59.249Z,100709.22
2023-02-17T17:16:36.258Z,100684.31
2023-02-17T17:19:04.281Z,100703.28
2023-02-17T17:21:32.625Z,100712.88
2023-02-17T17:23:59.339Z,100708.66
2023-02-17T17:26:36.304Z,100719.72
2023-02-17T17:29:05.499Z,100737.31
2023-02-17T17:31:35.323Z,100708.72
2023-02-17T17:34:02.371Z,100711.31
2023-02-17T17:36:39.336Z,100735.06
2023-02-17T17:39:12.117Z,100735.66
2023-02-17T17:41:40.474Z,100733.03
2023-02-17T17:44:08.424Z,100719.25
2023-02-17T17:46:37.926Z,100762.22
2023-02-17T17:49:06.129Z,100762.53
2023-02-17T17:51:33.884Z,100755.88
2023-02-17T17:54:00.617Z,100756.88
2023-02-17T17:56:32.823Z,100740.56
2023-02-17T17:59:00.706Z,100734.25
2023-02-17T18:01:27.689Z,100765.81
2023-02-17T18:03:54.633Z,100778.88
2023-02-17T18:06:43.011Z,100769.91
2023-02-17T18:09:25.809Z,100782.66
2023-02-17T18:11:58.486Z,100782.00
2023-02-17T18:14:25.034Z,100790.66
2023-02-17T18:16:51.902Z,100787.44
2023-02-17T18:19:19.979Z,100795.16
2023-02-17T18:21:47.738Z,100814.13
2023-02-17T18:24:15.315Z,100796.84
2023-02-17T18:26:42.692Z,100827.31
2023-02-17T18:29:13.092Z,100808.19
2023-02-17T18:31:39.693Z,100805.22
2023-02-17T18:34:06.234Z,100831.31
2023-02-17T18:36:32.700Z,100817.84
2023-02-17T18:38:59.164Z,100826.28
2023-02-17T18:41:30.242Z,100832.53
2023-02-17T18:43:57.973Z,100832.09
2023-02-17T18:46:26.757Z,100838.94
2023-02-17T18:48:54.971Z,100839.69
2023-02-17T18:51:23.445Z,100848.41
2023-02-17T18:53:50.815Z,100834.75
2023-02-17T18:56:22.503Z,100847.41
2023-02-17T18:58:50.611Z,100848.16
2023-02-17T19:01:19.730Z,100851.34
2023-02-17T19:03:46.732Z,100851.78
2023-02-17T19:06:16.218Z,100866.69
2023-02-17T19:08:46.851Z,100832.84
2023-02-17T19:11:15.178Z,100865.94
2023-02-17T19:13:41.810Z,100860.44
2023-02-17T19:16:15.153Z,100878.19
2023-02-17T19:18:42.537Z,100866.44
2023-02-17T19:21:09.171Z,100878.06
2023-02-17T19:23:36.861Z,100870.53
2023-02-17T19:26:08.461Z,100880.59
2023-02-17T19:28:36.714Z,100902.75
2023-02-17T19:31:10.053Z,100925.59
2023-02-17T19:33:36.808Z,100909.84
2023-02-17T19:36:12.045Z,100923.34
2023-02-17T19:38:38.723Z,100920.94
2023-02-17T19:41:08.015Z,100930.00
2023-02-17T19:43:34.606Z,100945.31
2023-02-17T19:46:01.556Z,100939.06
2023-02-17T19:48:28.176Z,100928.59
2023-02-17T19:51:06.352Z,100949.66
2023-02-17T19:53:33.539Z,100939.63
2023-02-17T19:56:14.214Z,100965.97
2023-02-17T19:58:42.466Z,100968.75
2023-02-17T20:01:11.566Z,100965.16
2023-02-17T20:03:38.592Z,100978.75
2023-02-17T20:06:10.771Z,100988.66
2023-02-17T20:08:40.128Z,100981.28
2023-02-17T20:11:08.661Z,100979.16
2023-02-17T20:13:45.198Z,100992.50
2023-02-17T20:16:14.315Z,101004.72
2023-02-17T20:18:42.587Z,100978.00
2023-02-17T20:21:10.797Z,100971.66
2023-02-17T20:23:37.247Z,101003.22
2023-02-17T20:26:09.184Z,101012.13
2023-02-17T20:28:36.085Z,101004.28
2023-02-17T20:31:03.134Z,101028.13
2023-02-17T20:33:29.802Z,101016.13
2023-02-17T20:35:56.281Z,101026.03
2023-02-17T20:38:22.785Z,101028.97
2023-02-17T20:40:49.371Z,101048.31
2023-02-17T20:43:15.810Z,101061.16
2023-02-17T20:45:42.833Z,101051.41
2023-02-17T20:48:09.949Z,101049.75
2023-02-17T20:50:36.478Z,101068.63
2023-02-17T20:53:03.378Z,101059.06
2023-02-17T20:55:30.135Z,101072.03
2023-02-17T20:57:56.590Z,101069.25
2023-02-17T21:00:25.089Z,101075.56
2023-02-17T21:02:54.460Z,101080.69
2023-02-17T21:05:22.445Z,101076.66
2023-02-17T21:07:49.661Z,101074.56
2023-02-17T21:10:21.948Z,101075.09
2023-02-17T21:12:48.860Z,101086.06
2023-02-17T21:15:15.895Z,101097.84
2023-02-17T21:17:42.361Z,101077.25
2023-02-17T21:20:11.422Z,101086.16
2023-02-17T21:22:37.930Z,101087.25
2023-02-17T21:25:05.293Z,101077.88
2023-02-17T21:27:32.342Z,101109.41
2023-02-17T21:29:59.037Z,101105.66
2023-02-17T21:32:26.147Z,101106.84
2023-02-17T21:34:52.670Z,101107.19
2023-02-17T21:37:19.223Z,101114.59
2023-02-17T21:39:47.791Z,101132.47
2023-02-17T21:42:36.051Z,101123.94
2023-02-17T21:45:02.653Z,101129.16
2023-02-17T21:47:29.233Z,101132.72
2023-02-17T21:49:55.766Z,101128.16
2023-02-17T21:52:22.675Z,101124.72
2023-02-17T21:54:49.162Z,101126.59
2023-02-17T21:57:15.624Z,101114.28
2023-02-17T21:59:44.087Z,101122.63
2023-02-17T22:02:11.773Z,101120.53
2023-02-17T22:04:38.234Z,101151.19
2023-02-17T22:07:04.806Z,101150.66
2023-02-17T22:09:31.283Z,101141.38
2023-02-17T22:11:57.740Z,101153.03
2023-02-17T22:14:25.699Z,101154.31
2023-02-17T22:16:52.881Z,101133.97
2023-02-17T22:19:22.680Z,101156.00
2023-02-17T22:21:50.443Z,101137.97
2023-02-17T22:24:18.171Z,101154.59
2023-02-17T22:26:51.232Z,101166.41
2023-02-17T22:29:18.740Z,101176.19
2023-02-17T22:31:45.491Z,101138.53
2023-02-17T22:34:13.385Z,101154.28
2023-02-17T22:36:39.960Z,101154.44
2023-02-17T22:39:07.889Z,101162.78
2023-02-17T22:41:35.581Z,101158.94
2023-02-17T22:44:03.079Z,101169.91
2023-02-17T22:46:29.623Z,101176.38
2023-02-17T22:48:56.615Z,101168.22
2023-02-17T22:51:29.457Z,101170.28
2023-02-17T22:53:56.067Z,101164.34
2023-02-17T22:56:24.045Z,101157.28
2023-02-17T22:58:55.733Z,101174.06
2023-02-17T23:01:22.618Z,101178.16
2023-02-17T23:03:54.316Z,101177.31
2023-02-17T23:06:24.881Z,101180.81
2023-02-17T23:08:52.825Z,101186.00
2023-02-17T23:11:45.725Z,101182.44
2023-02-17T23:14:13.825Z,101186.94
2023-02-17T23:16:42.289Z,101181.41
2023-02-17T23:19:11.441Z,101187.13
2023-02-17T23:21:37.942Z,101178.06
2023-02-17T23:24:04.701Z,101173.38
2023-02-17T23:26:31.175Z,101190.88
2023-02-17T23:28:57.644Z,101181.97
2023-02-17T23:31:24.414Z,101179.59
2023-02-17T23:33:51.948Z,101166.03
2023-02-17T23:36:18.450Z,101166.97
2023-02-17T23:38:44.916Z,101176.13
2023-02-17T23:41:11.820Z,101179.84
2023-02-17T23:43:38.357Z,101196.38
2023-02-17T23:46:05.150Z,101193.00
2023-02-17T23:48:31.705Z,101180.56
2023-02-17T23:51:03.325Z,101187.09
2023-02-17T23:53:30.830Z,101198.28
2023-02-17T23:56:05.436Z,101193.03
2023-02-17T23:58:32.362Z,101204.78
